createdAt,value
2017-03-22T00:00:26.734Z,0
2017-03-22T00:01:28.586Z,0
2017-03-22T00:02:30.426Z,0
2017-03-22T00:03:32.637Z,0
2017-03-22T00:04:34.502Z,0
2017-03-22T00:05:36.700Z,0
2017-03-22T00:06:38.551Z,0
2017-03-22T00:07:40.751Z,0
2017-03-22T00:08:42.623Z,0
2017-03-22T00:09:44.495Z,0
2017-03-22T00:10:46.352Z,0
2017-03-22T00:11:48.221Z,0
2017-03-22T00:12:50.076Z,0
2017-03-22T00:13:52.263Z,0
2017-03-22T00:14:54.478Z,0
2017-03-22T00:15:56.677Z,0
2017-03-22T00:16:58.868Z,0
2017-03-22T00:18:00.728Z,0
2017-03-22T00:19:02.595Z,0
2017-03-22T00:20:04.835Z,0
2017-03-22T00:21:06.682Z,0
2017-03-22T00:22:08.867Z,0
2017-03-22T00:23:10.748Z,0
2017-03-22T00:24:12.616Z,0
2017-03-22T00:25:14.817Z,0
2017-03-22T00:26:16.671Z,0
2017-03-22T00:27:18.524Z,0
2017-03-22T00:28:20.404Z,0
2017-03-22T00:29:22.264Z,0
2017-03-22T00:30:24.812Z,0
2017-03-22T00:31:26.660Z,0
2017-03-22T00:32:28.523Z,0
2017-03-22T00:33:30.735Z,0
2017-03-22T00:34:32.592Z,0
2017-03-22T00:35:34.437Z,0
2017-03-22T00:36:36.323Z,0
2017-03-22T00:37:38.169Z,0
2017-03-22T00:38:40.045Z,0
2017-03-22T00:39:42.243Z,0
2017-03-22T00:40:44.095Z,0
2017-03-22T00:41:45.946Z,0
2017-03-22T00:42:48.137Z,0
2017-03-22T00:43:50.330Z,0
2017-03-22T00:44:52.250Z,0
2017-03-22T00:45:54.465Z,0
2017-03-22T00:46:56.329Z,0
2017-03-22T00:47:58.186Z,0
2017-03-22T00:49:00.392Z,0
2017-03-22T00:50:02.573Z,0
2017-03-22T00:51:04.775Z,0
2017-03-22T00:52:06.627Z,0
2017-03-22T00:53:09.155Z,0
2017-03-22T00:54:11.010Z,0
2017-03-22T00:55:12.868Z,0
2017-03-22T00:56:14.735Z,0
2017-03-22T00:57:16.925Z,0
2017-03-22T00:58:19.117Z,0
2017-03-22T00:59:21.672Z,0
2017-03-22T01:00:23.525Z,0
2017-03-22T01:01:25.749Z,0
2017-03-22T01:02:27.591Z,0
2017-03-22T01:03:29.447Z,0
2017-03-22T01:04:31.307Z,0
2017-03-22T01:05:33.184Z,0
2017-03-22T01:06:35.038Z,0
2017-03-22T01:07:36.890Z,0
2017-03-22T01:08:39.088Z,0
2017-03-22T01:09:40.952Z,0
2017-03-22T01:10:42.792Z,0
2017-03-22T01:11:44.643Z,0
2017-03-22T01:12:46.487Z,0
2017-03-22T01:13:48.696Z,0
2017-03-22T01:14:50.546Z,0
2017-03-22T01:15:52.414Z,0
2017-03-22T01:16:54.266Z,0
2017-03-22T01:17:56.142Z,0
2017-03-22T01:18:57.994Z,0
2017-03-22T01:20:00.223Z,0
2017-03-22T01:21:02.071Z,0
2017-03-22T01:22:03.919Z,0
2017-03-22T01:23:05.765Z,0
2017-03-22T01:24:07.626Z,0
2017-03-22T01:25:09.472Z,0
2017-03-22T01:26:11.684Z,0
2017-03-22T01:27:13.536Z,0
2017-03-22T01:28:15.397Z,0
2017-03-22T01:29:17.252Z,0
2017-03-22T01:30:19.453Z,0
2017-03-22T01:31:21.291Z,0
2017-03-22T01:32:23.480Z,0
2017-03-22T01:33:25.666Z,0
2017-03-22T01:34:27.538Z,0
2017-03-22T01:35:29.387Z,0
2017-03-22T01:36:31.229Z,0
2017-03-22T01:37:33.093Z,0
2017-03-22T01:38:35.621Z,0
2017-03-22T01:39:38.632Z,0
2017-03-22T01:40:40.481Z,0
2017-03-22T01:41:42.318Z,0
2017-03-22T01:42:44.195Z,0
2017-03-22T01:43:46.736Z,0
2017-03-22T01:44:49.317Z,0
2017-03-22T01:45:51.169Z,0
2017-03-22T01:46:53.020Z,0
2017-03-22T01:47:54.861Z,0
2017-03-22T01:48:56.733Z,0
2017-03-22T01:49:58.629Z,0
2017-03-22T01:51:00.852Z,0
2017-03-22T01:52:02.717Z,0
2017-03-22T01:53:04.918Z,0
2017-03-22T01:54:07.105Z,0
2017-03-22T01:55:08.972Z,0
2017-03-22T01:56:10.830Z,0
2017-03-22T01:57:12.679Z,0
2017-03-22T01:58:14.523Z,0
2017-03-22T01:59:16.381Z,0
2017-03-22T02:00:18.236Z,0
2017-03-22T02:01:20.105Z,0
2017-03-22T02:02:21.947Z,0
2017-03-22T02:03:23.806Z,0
2017-03-22T02:04:26.001Z,0
2017-03-22T02:05:28.550Z,0
2017-03-22T02:06:30.395Z,0
2017-03-22T02:07:32.274Z,0
2017-03-22T02:08:34.478Z,0
2017-03-22T02:09:36.682Z,0
2017-03-22T02:10:38.923Z,0
2017-03-22T02:11:40.787Z,0
2017-03-22T02:12:42.632Z,0
2017-03-22T02:13:44.499Z,0
2017-03-22T02:14:46.350Z,0
2017-03-22T02:15:48.201Z,0
2017-03-22T02:16:50.044Z,0
2017-03-22T02:17:51.905Z,0
2017-03-22T02:18:54.444Z,0
2017-03-22T02:19:56.301Z,0
2017-03-22T02:20:58.157Z,0
2017-03-22T02:22:00.008Z,0
2017-03-22T02:23:02.194Z,0
2017-03-22T02:24:04.742Z,0
2017-03-22T02:25:06.940Z,0
2017-03-22T02:26:08.796Z,0
2017-03-22T02:27:10.638Z,0
2017-03-22T02:28:12.490Z,0
2017-03-22T02:29:14.701Z,0
2017-03-22T02:30:16.549Z,0
2017-03-22T02:31:18.395Z,0
2017-03-22T02:32:20.238Z,0
2017-03-22T02:33:22.092Z,0
2017-03-22T02:34:24.300Z,0
2017-03-22T02:35:26.480Z,0
2017-03-22T02:36:28.332Z,0
2017-03-22T02:37:30.208Z,0
2017-03-22T02:38:32.073Z,0
2017-03-22T02:39:34.264Z,0
2017-03-22T02:40:36.136Z,0
2017-03-22T02:41:38.476Z,0
2017-03-22T02:42:40.321Z,0
2017-03-22T02:43:42.182Z,0
2017-03-22T02:44:44.036Z,0
2017-03-22T02:45:46.234Z,0
2017-03-22T02:46:48.388Z,0
2017-03-22T02:47:50.229Z,0
2017-03-22T02:48:52.084Z,0
2017-03-22T02:49:54.273Z,0
2017-03-22T02:50:56.830Z,0
2017-03-22T02:51:59.014Z,0
2017-03-22T02:53:01.212Z,0
2017-03-22T02:54:03.080Z,0
2017-03-22T02:55:05.626Z,0
2017-03-22T02:56:07.478Z,0
2017-03-22T02:57:09.326Z,0
2017-03-22T02:58:11.171Z,0
2017-03-22T02:59:13.370Z,0
2017-03-22T03:00:15.592Z,0
2017-03-22T03:01:17.434Z,0
2017-03-22T03:02:19.289Z,0
2017-03-22T03:03:21.135Z,0
2017-03-22T03:04:23.679Z,0
2017-03-22T03:05:25.870Z,0
2017-03-22T03:06:27.737Z,0
2017-03-22T03:07:29.588Z,0
2017-03-22T03:08:31.436Z,0
2017-03-22T03:09:33.298Z,0
2017-03-22T03:10:35.158Z,0
2017-03-22T03:11:36.997Z,0
2017-03-22T03:12:38.854Z,0
2017-03-22T03:13:41.051Z,0
2017-03-22T03:14:43.304Z,0
2017-03-22T03:15:45.487Z,0
2017-03-22T03:16:47.363Z,0
2017-03-22T03:17:49.523Z,0
2017-03-22T03:18:51.396Z,0
2017-03-22T03:19:53.594Z,0
2017-03-22T03:20:55.782Z,0
2017-03-22T03:21:57.967Z,0
2017-03-22T03:22:59.809Z,0
2017-03-22T03:24:02.013Z,0
2017-03-22T03:25:03.854Z,0
2017-03-22T03:26:05.712Z,0
2017-03-22T03:27:07.563Z,0
2017-03-22T03:28:09.422Z,0
2017-03-22T03:29:11.270Z,0
2017-03-22T03:30:13.475Z,0
2017-03-22T03:31:15.342Z,0
2017-03-22T03:32:17.206Z,0
2017-03-22T03:33:19.731Z,0
2017-03-22T03:34:21.953Z,0
2017-03-22T03:35:23.822Z,0
2017-03-22T03:36:25.677Z,0
2017-03-22T03:37:27.851Z,0
2017-03-22T03:38:30.067Z,0
2017-03-22T03:39:32.271Z,0
2017-03-22T03:40:34.465Z,0
2017-03-22T03:41:36.326Z,0
2017-03-22T03:42:38.206Z,0
2017-03-22T03:43:40.401Z,0
2017-03-22T03:44:42.609Z,0
2017-03-22T03:45:44.471Z,0
2017-03-22T03:46:46.317Z,0
2017-03-22T03:47:48.852Z,0
2017-03-22T03:48:50.728Z,0
2017-03-22T03:49:52.980Z,0
2017-03-22T03:50:55.181Z,0
2017-03-22T03:51:57.022Z,0
2017-03-22T03:52:58.862Z,0
2017-03-22T03:54:01.076Z,0
2017-03-22T03:55:03.961Z,0
2017-03-22T03:56:06.157Z,0
2017-03-22T03:57:08.013Z,0
2017-03-22T03:58:09.853Z,0
2017-03-22T03:59:11.711Z,0
2017-03-22T04:00:13.936Z,0
2017-03-22T04:01:16.133Z,0
2017-03-22T04:02:17.980Z,0
2017-03-22T04:03:19.852Z,0
2017-03-22T04:04:22.052Z,0
2017-03-22T04:05:24.264Z,0
2017-03-22T04:06:26.123Z,0
2017-03-22T04:07:27.987Z,0
2017-03-22T04:08:29.845Z,0
2017-03-22T04:09:31.720Z,0
2017-03-22T04:10:33.570Z,0
2017-03-22T04:11:35.770Z,0
2017-03-22T04:12:38.052Z,0
2017-03-22T04:13:39.901Z,0
2017-03-22T04:14:41.744Z,0
2017-03-22T04:15:43.608Z,0
2017-03-22T04:16:45.463Z,0
2017-03-22T04:17:47.321Z,0
2017-03-22T04:18:49.553Z,0
2017-03-22T04:19:51.761Z,0
2017-03-22T04:20:53.950Z,0
2017-03-22T04:21:56.132Z,0
2017-03-22T04:22:57.996Z,0
2017-03-22T04:24:00.190Z,0
2017-03-22T04:25:02.411Z,0
2017-03-22T04:26:04.275Z,0
2017-03-22T04:27:06.116Z,0
2017-03-22T04:28:07.968Z,0
2017-03-22T04:29:09.818Z,0
2017-03-22T04:30:11.674Z,0
2017-03-22T04:31:13.863Z,1
2017-03-22T04:32:15.737Z,1
2017-03-22T04:33:17.595Z,1
2017-03-22T04:34:19.443Z,1
2017-03-22T04:35:21.306Z,1
2017-03-22T04:36:23.169Z,2
2017-03-22T04:37:25.015Z,2
2017-03-22T04:38:27.565Z,2
2017-03-22T04:39:29.422Z,1
2017-03-22T04:40:31.273Z,3
2017-03-22T04:41:33.130Z,3
2017-03-22T04:42:34.987Z,3
2017-03-22T04:43:37.204Z,5
2017-03-22T04:44:39.726Z,5
2017-03-22T04:45:41.597Z,7
2017-03-22T04:46:43.445Z,8
2017-03-22T04:47:45.276Z,9
2017-03-22T04:48:47.137Z,12
2017-03-22T04:49:49.670Z,14
2017-03-22T04:50:51.531Z,16
2017-03-22T04:51:53.388Z,19
2017-03-22T04:52:55.230Z,22
2017-03-22T04:53:57.416Z,27
2017-03-22T04:54:59.610Z,31
2017-03-22T04:56:01.473Z,38
2017-03-22T04:57:03.325Z,44
2017-03-22T04:58:05.177Z,50
2017-03-22T04:59:07.387Z,58
2017-03-22T05:00:09.241Z,67
2017-03-22T05:01:11.092Z,78
2017-03-22T05:02:12.940Z,89
2017-03-22T05:03:15.486Z,101
2017-03-22T05:04:17.348Z,114
2017-03-22T05:05:20.209Z,128
2017-03-22T05:06:22.063Z,145
2017-03-22T05:07:23.911Z,161
2017-03-22T05:08:26.121Z,181
2017-03-22T05:09:27.973Z,202
2017-03-22T05:10:30.494Z,223
2017-03-22T05:11:32.348Z,245
2017-03-22T05:12:34.197Z,269
2017-03-22T05:13:36.402Z,295
2017-03-22T05:14:38.594Z,321
2017-03-22T05:15:40.440Z,346
2017-03-22T05:16:42.294Z,372
2017-03-22T05:17:44.153Z,402
2017-03-22T05:18:46.696Z,435
2017-03-22T05:19:49.226Z,468
2017-03-22T05:20:51.075Z,502
2017-03-22T05:21:52.924Z,537
2017-03-22T05:22:54.782Z,574
2017-03-22T05:23:57.027Z,614
2017-03-22T05:24:59.242Z,654
2017-03-22T05:26:01.078Z,695
2017-03-22T05:27:02.916Z,739
2017-03-22T05:28:04.777Z,785
2017-03-22T05:29:06.974Z,829
2017-03-22T05:30:09.183Z,865
2017-03-22T05:31:11.044Z,901
2017-03-22T05:32:12.909Z,939
2017-03-22T05:33:15.159Z,981
2017-03-22T05:34:17.002Z,1024
2017-03-22T05:35:19.884Z,1065
2017-03-22T05:36:21.740Z,1106
2017-03-22T05:37:23.606Z,1147
2017-03-22T05:38:25.454Z,1189
2017-03-22T05:39:27.658Z,1231
2017-03-22T05:40:29.864Z,1272
2017-03-22T05:41:31.734Z,1318
2017-03-22T05:42:33.967Z,1360
2017-03-22T05:43:35.817Z,1398
2017-03-22T05:44:37.669Z,1441
2017-03-22T05:45:39.531Z,1478
2017-03-22T05:46:41.733Z,1515
2017-03-22T05:47:43.596Z,1553
2017-03-22T05:48:45.433Z,1589
2017-03-22T05:49:47.965Z,1625
2017-03-22T05:50:50.188Z,1662
2017-03-22T05:51:52.040Z,1700
2017-03-22T05:52:53.973Z,1736
2017-03-22T05:53:56.199Z,1775
2017-03-22T05:54:58.471Z,1813
2017-03-22T05:56:01.034Z,1851
2017-03-22T05:57:02.875Z,1887
2017-03-22T05:58:05.182Z,1925
2017-03-22T05:59:07.987Z,1963
2017-03-22T06:00:10.275Z,1995
2017-03-22T06:01:12.299Z,2027
2017-03-22T06:02:14.159Z,2056
2017-03-22T06:03:16.011Z,2087
2017-03-22T06:06:24.670Z,2185
2017-03-22T06:07:26.469Z,2219
2017-03-22T06:08:28.631Z,2254
2017-03-22T06:09:30.479Z,2289
2017-03-22T06:10:32.276Z,2322
2017-03-22T06:11:34.075Z,2356
2017-03-22T06:12:35.868Z,2387
2017-03-22T06:13:38.677Z,2419
2017-03-22T06:14:41.153Z,2450
2017-03-22T06:15:43.284Z,2484
2017-03-22T06:16:45.419Z,2514
2017-03-22T06:17:47.217Z,2545
2017-03-22T06:18:49.030Z,2575
2017-03-22T06:19:50.825Z,2606
2017-03-22T06:20:52.627Z,2634
2017-03-22T06:21:54.428Z,2665
2017-03-22T06:22:56.225Z,2695
2017-03-22T06:23:58.021Z,2725
2017-03-22T06:25:00.155Z,2755
2017-03-22T06:26:02.287Z,2786
2017-03-22T06:27:04.083Z,2817
2017-03-22T06:28:06.215Z,2852
2017-03-22T06:29:08.351Z,2890
2017-03-22T06:30:10.524Z,2972
2017-03-22T06:31:12.655Z,3037
2017-03-22T06:32:14.454Z,3075
2017-03-22T06:33:16.255Z,3139
2017-03-22T06:34:18.406Z,3187
2017-03-22T06:35:20.539Z,3209
2017-03-22T06:36:22.342Z,3266
2017-03-22T06:37:24.140Z,3281
2017-03-22T06:38:25.937Z,3330
2017-03-22T06:39:28.414Z,3370
2017-03-22T06:40:30.217Z,3418
2017-03-22T06:41:32.346Z,3440
2017-03-22T06:42:34.143Z,3495
2017-03-22T06:43:35.943Z,3559
2017-03-22T06:44:37.736Z,3574
2017-03-22T06:45:39.872Z,3606
2017-03-22T06:46:41.670Z,3653
2017-03-22T06:47:43.462Z,3693
2017-03-22T06:48:45.259Z,3708
2017-03-22T06:49:47.402Z,3723
2017-03-22T06:50:49.203Z,3763
2017-03-22T06:51:51.338Z,3820
2017-03-22T06:52:53.471Z,3868
2017-03-22T06:53:55.272Z,3892
2017-03-22T06:54:57.070Z,3890
2017-03-22T06:55:58.878Z,3883
2017-03-22T06:57:00.672Z,3978
2017-03-22T06:58:02.466Z,3994
2017-03-22T06:59:04.617Z,4020
2017-03-22T07:00:06.422Z,4051
2017-03-22T07:01:08.240Z,4068
2017-03-22T07:02:10.043Z,4075
2017-03-22T07:03:11.840Z,4123
2017-03-22T07:04:13.671Z,4186
2017-03-22T07:05:16.788Z,4275
2017-03-22T07:06:18.593Z,4299
2017-03-22T07:07:20.399Z,4322
2017-03-22T07:08:22.202Z,4322
2017-03-22T07:09:24.345Z,4251
2017-03-22T07:10:26.151Z,4212
2017-03-22T07:11:27.955Z,4188
2017-03-22T07:12:29.786Z,4197
2017-03-22T07:13:31.589Z,4197
2017-03-22T07:14:33.726Z,4230
2017-03-22T07:15:35.535Z,4254
2017-03-22T07:16:37.721Z,4278
2017-03-22T07:17:39.536Z,4278
2017-03-22T07:18:41.333Z,4335
2017-03-22T07:19:43.485Z,4359
2017-03-22T07:20:45.968Z,4415
2017-03-22T07:21:47.769Z,4415
2017-03-22T07:22:49.578Z,4415
2017-03-22T07:23:52.055Z,4406
2017-03-22T07:24:53.860Z,4439
2017-03-22T07:25:56.010Z,4454
2017-03-22T07:26:57.808Z,4485
2017-03-22T07:28:00.289Z,4542
2017-03-22T07:29:02.138Z,4557
2017-03-22T07:30:03.951Z,4597
2017-03-22T07:31:06.100Z,4628
2017-03-22T07:32:07.959Z,4701
2017-03-22T07:33:10.117Z,4733
2017-03-22T07:34:12.262Z,4764
2017-03-22T07:35:14.066Z,4788
2017-03-22T07:36:16.234Z,4844
2017-03-22T07:37:18.038Z,4918
2017-03-22T07:38:19.846Z,4932
2017-03-22T07:39:21.983Z,4965
2017-03-22T07:40:23.783Z,4973
2017-03-22T07:41:25.585Z,5013
2017-03-22T07:42:27.403Z,5044
2017-03-22T07:43:29.209Z,5099
2017-03-22T07:44:31.359Z,5384
2017-03-22T07:45:33.167Z,6398
2017-03-22T07:46:34.968Z,7404
2017-03-22T07:47:36.770Z,7429
2017-03-22T07:48:38.567Z,6411
2017-03-22T07:49:40.380Z,6709
2017-03-22T07:50:42.200Z,7711
2017-03-22T07:51:44.022Z,6476
2017-03-22T07:52:45.825Z,5679
2017-03-22T07:53:47.963Z,5734
2017-03-22T07:54:49.774Z,5765
2017-03-22T07:55:51.578Z,5829
2017-03-22T07:56:54.067Z,5954
2017-03-22T07:57:55.871Z,6024
2017-03-22T07:58:57.684Z,6121
2017-03-22T07:59:59.487Z,6215
2017-03-22T08:01:01.295Z,6338
2017-03-22T08:02:03.092Z,6528
2017-03-22T08:03:05.568Z,6535
2017-03-22T08:04:07.379Z,6471
2017-03-22T08:05:09.514Z,6457
2017-03-22T08:06:11.328Z,6544
2017-03-22T08:07:13.462Z,6631
2017-03-22T08:08:15.272Z,6686
2017-03-22T08:09:17.070Z,6759
2017-03-22T08:10:18.873Z,7215
2017-03-22T08:11:21.015Z,16385
2017-03-22T08:12:23.166Z,65536
2017-03-22T08:13:24.970Z,65536
2017-03-22T08:14:26.774Z,65536
2017-03-22T08:15:28.583Z,65536
2017-03-22T08:16:31.072Z,65536
2017-03-22T08:17:32.869Z,65536
2017-03-22T08:18:34.683Z,65536
2017-03-22T08:19:36.480Z,65536
2017-03-22T08:20:38.281Z,65536
2017-03-22T08:21:40.087Z,65536
2017-03-22T08:22:41.885Z,65536
2017-03-22T08:23:43.700Z,65536
2017-03-22T08:24:45.855Z,65536
2017-03-22T08:25:47.661Z,65536
2017-03-22T08:26:49.460Z,65536
2017-03-22T08:27:51.273Z,65536
2017-03-22T08:28:53.428Z,65536
2017-03-22T08:29:55.924Z,65536
2017-03-22T08:30:58.071Z,65536
2017-03-22T08:31:59.889Z,65536
2017-03-22T08:33:01.693Z,65536
2017-03-22T08:34:03.501Z,65536
2017-03-22T08:35:05.987Z,65536
2017-03-22T08:36:07.796Z,65536
2017-03-22T08:37:09.605Z,65536
2017-03-22T08:38:11.424Z,65536
2017-03-22T08:39:13.227Z,65536
2017-03-22T08:40:15.379Z,65536
2017-03-22T08:41:17.519Z,65536
2017-03-22T08:42:19.339Z,65536
2017-03-22T08:43:21.143Z,65536
2017-03-22T08:44:23.637Z,65536
2017-03-22T08:45:25.448Z,65536
2017-03-22T08:46:27.251Z,65536
2017-03-22T08:47:29.064Z,65536
2017-03-22T08:48:30.872Z,65536
2017-03-22T08:49:32.688Z,65536
2017-03-22T08:50:34.535Z,65536
2017-03-22T08:51:36.341Z,65536
2017-03-22T08:52:38.157Z,65536
2017-03-22T08:53:40.306Z,65536
2017-03-22T08:54:42.117Z,65536
2017-03-22T08:55:43.928Z,65536
2017-03-22T08:56:45.736Z,65536
2017-03-22T08:57:47.548Z,65536
2017-03-22T08:58:49.360Z,65536
2017-03-22T08:59:51.177Z,65536
2017-03-22T09:00:52.985Z,65536
2017-03-22T09:01:54.799Z,65536
2017-03-22T09:02:56.618Z,65536
2017-03-22T09:03:58.437Z,65536
2017-03-22T09:05:00.586Z,65536
2017-03-22T09:06:02.399Z,65536
2017-03-22T09:07:04.212Z,65536
2017-03-22T09:08:06.091Z,65536
2017-03-22T09:09:07.905Z,65536
2017-03-22T09:10:09.725Z,65536
2017-03-22T09:11:11.538Z,65536
2017-03-22T09:12:13.708Z,65536
2017-03-22T09:13:15.524Z,65536
2017-03-22T09:14:17.683Z,65536
2017-03-22T09:15:19.497Z,65536
2017-03-22T09:16:21.318Z,65536
2017-03-22T09:17:23.125Z,65536
2017-03-22T09:18:24.944Z,65536
2017-03-22T09:19:26.765Z,65536
2017-03-22T09:20:28.578Z,65536
2017-03-22T09:21:30.388Z,65536
2017-03-22T09:22:32.200Z,65536
2017-03-22T09:23:34.014Z,65536
2017-03-22T09:24:35.844Z,65536
2017-03-22T09:25:37.658Z,65536
2017-03-22T09:26:39.470Z,65536
2017-03-22T09:27:41.636Z,65536
2017-03-22T09:28:43.453Z,65536
2017-03-22T09:29:45.276Z,65536
2017-03-22T09:30:47.094Z,65536
2017-03-22T09:31:48.910Z,65536
2017-03-22T09:32:50.734Z,65536
2017-03-22T09:33:52.556Z,65536
2017-03-22T09:34:54.406Z,65536
2017-03-22T09:35:56.230Z,65536
2017-03-22T09:36:58.049Z,65536
2017-03-22T09:38:00.217Z,65536
2017-03-22T09:39:02.030Z,65536
2017-03-22T09:40:03.846Z,65536
2017-03-22T09:41:06.001Z,65536
2017-03-22T09:42:07.815Z,65536
2017-03-22T09:43:09.631Z,65536
2017-03-22T09:44:11.439Z,65536
2017-03-22T09:45:13.270Z,65536
2017-03-22T09:46:15.078Z,65536
2017-03-22T09:47:17.242Z,65536
2017-03-22T09:48:19.055Z,65536
2017-03-22T09:49:20.879Z,65536
2017-03-22T09:50:22.728Z,65536
2017-03-22T09:51:24.546Z,65536
2017-03-22T09:52:26.371Z,65536
2017-03-22T09:53:28.184Z,65536
2017-03-22T09:54:30.008Z,65536
2017-03-22T09:55:31.822Z,65536
2017-03-22T09:56:33.636Z,65536
2017-03-22T09:57:35.456Z,65536
2017-03-22T09:58:37.268Z,65536
2017-03-22T09:59:39.081Z,65536
2017-03-22T10:00:40.896Z,65536
2017-03-22T10:01:42.715Z,65536
2017-03-22T10:02:44.532Z,65536
2017-03-22T10:03:46.348Z,65536
2017-03-22T10:04:48.163Z,65536
2017-03-22T10:05:49.988Z,65536
2017-03-22T10:06:51.808Z,65536
2017-03-22T10:07:53.621Z,65536
2017-03-22T10:08:55.795Z,65536
2017-03-22T10:09:57.642Z,65536
2017-03-22T10:10:59.470Z,65536
2017-03-22T10:12:01.293Z,65536
2017-03-22T10:13:03.108Z,65536
2017-03-22T10:14:04.920Z,65536
2017-03-22T10:15:06.740Z,65536
2017-03-22T10:16:08.560Z,65536
2017-03-22T10:17:10.384Z,65536
2017-03-22T10:18:12.193Z,28141
2017-03-22T10:19:14.022Z,65536
2017-03-22T10:20:15.843Z,65536
2017-03-22T10:21:17.679Z,65536
2017-03-22T10:22:19.496Z,65536
2017-03-22T10:23:21.316Z,65536
2017-03-22T10:24:23.138Z,65536
2017-03-22T10:25:24.956Z,65536
2017-03-22T10:26:26.768Z,65536
2017-03-22T10:27:28.577Z,65536
2017-03-22T10:28:30.409Z,65536
2017-03-22T10:29:32.226Z,65536
2017-03-22T10:30:34.052Z,65536
2017-03-22T10:31:35.869Z,65536
2017-03-22T10:32:37.692Z,65536
2017-03-22T10:33:39.515Z,65536
2017-03-22T10:34:41.326Z,65536
2017-03-22T10:35:43.157Z,65536
2017-03-22T10:36:44.975Z,65536
2017-03-22T10:37:46.792Z,65536
2017-03-22T10:38:48.604Z,65536
2017-03-22T10:39:50.430Z,65536
2017-03-22T10:40:52.242Z,65536
2017-03-22T10:41:54.101Z,65536
2017-03-22T10:42:55.916Z,65536
2017-03-22T10:43:57.730Z,65536
2017-03-22T10:44:59.548Z,65536
2017-03-22T10:46:01.368Z,65536
2017-03-22T10:47:03.185Z,65536
2017-03-22T10:48:05.006Z,65536
2017-03-22T10:49:06.833Z,65536
2017-03-22T10:50:08.653Z,65536
2017-03-22T10:51:10.464Z,65536
2017-03-22T10:52:12.283Z,65536
2017-03-22T10:53:14.103Z,65536
2017-03-22T10:54:16.274Z,65536
2017-03-22T10:55:18.091Z,65536
2017-03-22T10:56:19.904Z,65536
2017-03-22T10:57:22.078Z,65536
2017-03-22T10:58:24.235Z,65536
2017-03-22T10:59:26.059Z,65536
2017-03-22T11:00:27.876Z,65536
2017-03-22T11:01:29.699Z,65536
2017-03-22T11:02:31.848Z,65536
2017-03-22T11:03:33.677Z,65536
2017-03-22T11:04:35.495Z,65536
2017-03-22T11:05:37.310Z,65536
2017-03-22T11:06:39.129Z,65536
2017-03-22T11:07:40.949Z,65536
2017-03-22T11:08:42.762Z,65536
2017-03-22T11:09:44.584Z,65536
2017-03-22T11:10:46.408Z,65536
2017-03-22T11:11:48.259Z,65536
2017-03-22T11:12:50.078Z,65536
2017-03-22T11:13:51.918Z,65536
2017-03-22T11:14:54.416Z,65536
2017-03-22T11:15:56.225Z,65536
2017-03-22T11:16:58.052Z,65536
2017-03-22T11:17:59.874Z,65536
2017-03-22T11:19:01.701Z,65536
2017-03-22T11:20:03.517Z,65536
2017-03-22T11:21:05.343Z,65536
2017-03-22T11:22:07.194Z,65536
2017-03-22T11:23:09.017Z,65536
2017-03-22T11:24:11.170Z,65536
2017-03-22T11:25:12.983Z,65536
2017-03-22T11:26:14.803Z,65536
2017-03-22T11:27:16.636Z,65536
2017-03-22T11:28:18.444Z,65536
2017-03-22T11:29:20.604Z,65536
2017-03-22T11:30:22.757Z,65536
2017-03-22T11:31:24.585Z,65536
2017-03-22T11:32:26.406Z,65536
2017-03-22T11:33:28.219Z,65536
2017-03-22T11:34:30.054Z,65536
2017-03-22T11:35:32.561Z,65536
2017-03-22T11:36:34.375Z,65536
2017-03-22T11:37:36.190Z,65536
2017-03-22T11:38:38.013Z,65536
2017-03-22T11:39:39.842Z,65536
2017-03-22T11:40:41.664Z,65536
2017-03-22T11:41:43.830Z,65536
2017-03-22T11:42:46.004Z,65536
2017-03-22T11:43:47.821Z,65536
2017-03-22T11:44:49.682Z,65536
2017-03-22T11:45:51.498Z,65536
2017-03-22T11:46:53.315Z,65536
2017-03-22T11:47:55.139Z,65536
2017-03-22T11:48:56.986Z,65536
2017-03-22T11:49:59.139Z,65536
2017-03-22T11:51:00.959Z,65536
2017-03-22T11:52:02.786Z,65536
2017-03-22T11:53:04.607Z,65536
2017-03-22T11:54:06.436Z,65536
2017-03-22T11:55:08.253Z,65536
2017-03-22T11:56:10.082Z,65536
2017-03-22T11:57:11.898Z,65536
2017-03-22T11:58:13.727Z,65536
2017-03-22T11:59:15.545Z,65536
2017-03-22T12:00:17.367Z,65536
2017-03-22T12:01:19.192Z,65536
2017-03-22T12:02:21.015Z,65536
2017-03-22T12:03:22.834Z,65536
2017-03-22T12:04:24.649Z,65536
2017-03-22T12:05:26.469Z,65536
2017-03-22T12:06:28.282Z,65536
2017-03-22T12:07:30.112Z,65536
2017-03-22T12:08:31.927Z,65536
2017-03-22T12:09:33.741Z,65536
2017-03-22T12:10:35.596Z,65536
2017-03-22T12:11:37.420Z,65536
2017-03-22T12:12:39.591Z,65536
2017-03-22T12:13:41.412Z,65536
2017-03-22T12:14:43.225Z,65536
2017-03-22T12:15:45.047Z,65536
2017-03-22T12:16:47.208Z,65536
2017-03-22T12:17:49.378Z,65536
2017-03-22T12:18:51.199Z,65536
2017-03-22T12:19:53.022Z,65536
2017-03-22T12:20:54.848Z,65536
2017-03-22T12:21:56.670Z,65536
2017-03-22T12:22:58.496Z,65536
2017-03-22T12:24:01.001Z,65536
2017-03-22T12:25:02.823Z,65536
2017-03-22T12:26:04.649Z,65536
2017-03-22T12:27:06.469Z,65536
2017-03-22T12:28:08.282Z,65536
2017-03-22T12:29:10.100Z,65536
2017-03-22T12:30:12.268Z,65536
2017-03-22T12:31:14.082Z,65536
2017-03-22T12:32:15.906Z,65536
2017-03-22T12:33:17.730Z,65536
2017-03-22T12:34:19.546Z,65536
2017-03-22T12:35:21.389Z,65536
2017-03-22T12:36:23.538Z,65536
2017-03-22T12:37:25.363Z,65536
2017-03-22T12:38:27.177Z,65536
2017-03-22T12:39:29.039Z,65536
2017-03-22T12:40:30.862Z,65536
2017-03-22T12:41:32.683Z,65536
2017-03-22T12:42:34.841Z,65536
2017-03-22T12:43:36.659Z,65536
2017-03-22T12:44:38.478Z,65536
2017-03-22T12:45:40.318Z,65536
2017-03-22T12:46:42.174Z,65536
2017-03-22T12:47:43.989Z,65536
2017-03-22T12:48:45.810Z,65536
2017-03-22T12:49:47.633Z,65536
2017-03-22T12:50:49.456Z,65536
2017-03-22T12:51:51.272Z,65536
2017-03-22T12:52:53.101Z,65536
2017-03-22T12:53:54.929Z,65536
2017-03-22T12:54:56.746Z,65536
2017-03-22T12:55:58.569Z,65536
2017-03-22T12:57:00.389Z,65536
2017-03-22T12:58:02.208Z,65536
2017-03-22T12:59:04.035Z,65536
2017-03-22T13:00:06.196Z,65536
2017-03-22T13:01:08.029Z,65536
2017-03-22T13:02:09.855Z,65536
2017-03-22T13:03:12.016Z,65536
2017-03-22T13:04:14.175Z,65536
2017-03-22T13:05:15.992Z,65536
2017-03-22T13:06:17.815Z,65536
2017-03-22T13:07:19.641Z,65536
2017-03-22T13:08:21.453Z,65536
2017-03-22T13:09:23.271Z,65536
2017-03-22T13:10:25.440Z,65536
2017-03-22T13:11:27.280Z,65536
2017-03-22T13:12:29.115Z,65536
